To NAV CANADA Home Page Login to a new session Search on AWWS site Feedback and Comments Disclaimer Vers la page française équivalente Tips FAQ What's new on the site To the Forecasts and Observations / NOTAM section To "File a Flight Plan" website Publications and other links Update of the User's profile FIC Telephone Numbers My Weather Data Folder Route Weather Data Regional Weather Data Local Weather Data To the Forecasts and Observations / NOTAM section
Request Generated 06/26/2017 at 22:31:30 UTC . Weather information available at that time is displayed.

METAR/TAF

NATASHQUAN/QC    (show WxCam)

METAR CYNA 262200Z AUTO 27019G24KT 9SM CLR 13/05 A2970 RMK SLP059=
METAR CYNA 262100Z AUTO 28019G29KT 9SM CLR 14/05 A2970 RMK SLP057
DENSITY ALT 100FT=
METAR CYNA 262000Z AUTO 27021G30KT 9SM CLR 15/04 A2969 RMK SLP056
DENSITY ALT 200FT=

TAF CYNA 261938Z 2620/2708 28020G32KT P6SM SKC
BECMG 2700/2702 27010KT
RMK FCST BASED ON AUTO OBS. NXT FCST BY 270200Z=
Your time UTC time
Weather data provided by Environment Canada and NAV CANADA